This is the latest recevied weather packets stored in our database for station/object WX6HNX-5. If no packets are shown the sender has not sent any weather packets the latest 10 day(s).
| Time | Temp. | Humidity | Pressure | Rain* | Wind** | Luminosity | Snow |
|---|---|---|---|---|---|---|---|
| 1777646250 | 16.11° C | 68% | 1013.1 hPa | 0 mm | - | - | - |
| 1777645345 | 15° C | 70% | 1013 hPa | 0 mm | - | - | - |
| 1777644445 | 13.89° C | 74% | 1012.9 hPa | 0 mm | - | - | - |
| 1777643545 | 12.78° C | 74% | 1012.8 hPa | 0 mm | - | - | - |
| 1777643246 | 12.78° C | 74% | 1012.8 hPa | 0 mm | - | - | - |
| 1777642346 | 12.78° C | 75% | 1012.6 hPa | 0 mm | - | - | - |
| 1777641744 | 12.78° C | 75% | 1012.6 hPa | 0 mm | - | - | - |
| 1777641447 | 12.78° C | 75% | 1012.6 hPa | 0 mm | - | - | - |
| 1777640846 | 13.33° C | 74% | 1012.5 hPa | 0 mm | - | - | - |
| 1777640544 | 13.33° C | 75% | 1012.4 hPa | 0 mm | - | - | - |
| 1777640245 | 13.33° C | 75% | 1012.3 hPa | 0 mm | - | - | - |
| 1777631524 | 15° C | 72% | 1011.7 hPa | 0 mm | - | - | - |
| 1777631224 | 15° C | 72% | 1011.7 hPa | 0 mm | - | - | - |
| 1777630925 | 15° C | 71% | 1011.7 hPa | 0 mm | - | - | - |
| 1777630624 | 15° C | 70% | 1011.7 hPa | 0 mm | - | - | - |
| 1777630024 | 15.56° C | 68% | 1011.6 hPa | 0 mm | - | - | - |
| 1777629424 | 15.56° C | 67% | 1011.5 hPa | 0 mm | - | - | - |
| 1777629124 | 15.56° C | 67% | 1011.5 hPa | 0 mm | - | - | - |
| 1777628823 | 15.56° C | 67% | 1011.5 hPa | 0 mm | - | - | - |
| 1777628524 | 16.11° C | 67% | 1011.6 hPa | 0 mm | - | - | - |
| 1777628224 | 16.11° C | 66% | 1011.6 hPa | 0 mm | - | - | - |
| 1777627924 | 16.11° C | 66% | 1011.6 hPa | 0 mm | - | - | - |
| 1777627624 | 16.11° C | 65% | 1011.6 hPa | 0 mm | - | - | - |
| 1777627326 | 16.11° C | 65% | 1011.6 hPa | 0 mm | - | - | - |
| 1777627024 | 16.11° C | 65% | 1011.6 hPa | 0 mm | - | - | - |
* Rain latest hour (hover to see other rain measurements)
** Current wind speed in m/s (hover to see current wind gust speed)